createdAt,value
2023-05-13T00:02:17.099Z,84.89
2023-05-13T00:06:20.360Z,84.84
2023-05-13T00:10:23.798Z,84.71
2023-05-13T00:14:27.166Z,85.10
2023-05-13T00:18:31.582Z,85.08
2023-05-13T00:22:34.735Z,85.11
2023-05-13T00:26:37.726Z,84.99
2023-05-13T00:30:42.189Z,85.10
2023-05-13T00:34:47.243Z,85.16
2023-05-13T00:38:50.244Z,85.07
2023-05-13T00:42:53.618Z,84.83
2023-05-13T00:46:56.839Z,84.88
2023-05-13T00:51:02.096Z,85.04
2023-05-13T00:55:05.704Z,85.03
2023-05-13T00:59:09.021Z,84.98
2023-05-13T01:03:15.374Z,84.96
2023-05-13T01:07:28.818Z,84.86
2023-05-13T01:11:37.775Z,85.41
2023-05-13T01:15:44.141Z,85.59
2023-05-13T01:19:53.393Z,85.54
2023-05-13T01:23:57.785Z,85.30
2023-05-13T01:28:01.967Z,85.48
2023-05-13T01:32:08.521Z,85.61
2023-05-13T01:36:12.015Z,85.08
2023-05-13T01:40:31.716Z,85.42
2023-05-13T01:44:40.409Z,85.12
2023-05-13T01:48:43.528Z,85.17
2023-05-13T01:52:47.154Z,85.31
2023-05-13T01:56:52.914Z,85.71
2023-05-13T02:00:55.999Z,85.97
2023-05-13T02:04:59.082Z,85.31
2023-05-13T02:09:02.150Z,85.47
2023-05-13T02:13:06.961Z,85.49
2023-05-13T02:17:09.938Z,85.49
2023-05-13T02:21:13.022Z,85.78
2023-05-13T02:25:16.051Z,85.79
2023-05-13T02:29:20.433Z,85.71
2023-05-13T02:33:23.596Z,85.84
2023-05-13T02:37:28.704Z,85.90
2023-05-13T02:41:37.708Z,85.64
2023-05-13T02:45:42.730Z,86.17
2023-05-13T02:49:47.171Z,86.04
2023-05-13T02:53:50.616Z,85.79
2023-05-13T02:57:54.069Z,86.01
2023-05-13T03:01:58.670Z,85.68
2023-05-13T03:06:01.774Z,85.91
2023-05-13T03:10:05.223Z,85.62
2023-05-13T03:14:08.272Z,85.52
2023-05-13T03:18:12.674Z,85.91
2023-05-13T03:22:16.408Z,85.94
2023-05-13T03:26:19.870Z,86.16
2023-05-13T03:30:23.268Z,86.29
2023-05-13T03:34:37.861Z,86.24
2023-05-13T03:38:41.475Z,85.97
2023-05-13T03:42:45.087Z,86.14
2023-05-13T03:46:49.335Z,86.15
2023-05-13T03:50:54.301Z,86.22
2023-05-13T03:54:58.370Z,86.09
2023-05-13T03:59:01.419Z,85.90
2023-05-13T04:03:04.561Z,86.00
2023-05-13T04:07:09.013Z,86.03
2023-05-13T04:11:12.030Z,85.71
2023-05-13T04:15:15.084Z,85.92
2023-05-13T04:19:18.280Z,85.85
2023-05-13T04:23:25.660Z,85.54
2023-05-13T04:27:28.738Z,85.66
2023-05-13T04:31:38.617Z,85.96
2023-05-13T04:35:41.813Z,85.96
2023-05-13T04:39:47.712Z,85.89
2023-05-13T04:43:52.293Z,85.92
2023-05-13T04:47:57.731Z,86.05
2023-05-13T04:52:02.474Z,85.50
2023-05-13T04:56:08.776Z,85.93
2023-05-13T05:00:13.325Z,85.48
2023-05-13T05:04:17.950Z,85.88
2023-05-13T05:08:22.508Z,85.72
2023-05-13T05:12:30.561Z,85.69
2023-05-13T05:16:33.775Z,85.97
2023-05-13T05:20:37.514Z,85.62
2023-05-13T05:24:43.194Z,85.29
2023-05-13T05:28:47.717Z,85.65
2023-05-13T05:32:53.266Z,84.99
2023-05-13T05:36:56.598Z,85.28
2023-05-13T05:41:00.329Z,85.25
2023-05-13T05:45:06.018Z,85.16
2023-05-13T05:49:09.462Z,85.15
2023-05-13T05:53:13.370Z,84.74
2023-05-13T05:57:17.165Z,84.19
2023-05-13T06:01:21.776Z,83.80
2023-05-13T06:05:24.930Z,83.97
2023-05-13T06:09:28.065Z,84.36
2023-05-13T06:13:31.298Z,84.30
2023-05-13T06:17:35.713Z,83.93
2023-05-13T06:21:43.170Z,83.54
2023-05-13T06:25:46.946Z,83.33
2023-05-13T06:29:50.088Z,83.17
2023-05-13T06:33:54.588Z,82.91
2023-05-13T06:38:00.823Z,82.83
2023-05-13T06:42:04.998Z,82.51
2023-05-13T06:46:10.708Z,82.27
2023-05-13T06:50:15.227Z,82.48
2023-05-13T06:54:18.221Z,81.94
2023-05-13T06:58:21.277Z,82.22
2023-05-13T07:02:24.279Z,82.28
2023-05-13T07:06:28.741Z,81.79
2023-05-13T07:10:31.783Z,81.90
2023-05-13T07:14:34.902Z,81.54
2023-05-13T07:18:37.960Z,81.09
2023-05-13T07:22:42.480Z,80.85
2023-05-13T07:26:45.619Z,80.39
2023-05-13T07:30:48.717Z,80.07
2023-05-13T07:34:51.750Z,80.48
2023-05-13T07:38:56.317Z,79.82
2023-05-13T07:42:59.768Z,80.04
2023-05-13T07:47:02.880Z,79.90
2023-05-13T07:51:06.460Z,79.98
2023-05-13T07:55:11.448Z,79.60
2023-05-13T07:59:14.498Z,79.09
2023-05-13T08:03:34.628Z,79.23
2023-05-13T08:07:37.844Z,79.26
2023-05-13T08:11:42.865Z,79.01
2023-05-13T08:15:46.068Z,79.04
2023-05-13T08:19:49.135Z,79.21
2023-05-13T08:23:52.317Z,79.18
2023-05-13T08:27:56.874Z,79.89
2023-05-13T08:31:59.985Z,79.91
2023-05-13T08:36:03.044Z,80.72
2023-05-13T08:40:08.330Z,80.88
2023-05-13T08:44:13.715Z,80.65
2023-05-13T08:48:17.230Z,80.73
2023-05-13T08:52:22.581Z,81.10
2023-05-13T08:56:28.443Z,81.08
2023-05-13T09:00:34.328Z,81.35
2023-05-13T09:04:41.694Z,81.69
2023-05-13T09:08:44.828Z,81.81
2023-05-13T09:12:49.825Z,82.03
2023-05-13T09:16:57.518Z,81.75
2023-05-13T09:21:23.945Z,81.34
2023-05-13T09:25:27.567Z,81.15
2023-05-13T09:29:30.702Z,80.61
2023-05-13T09:33:41.250Z,79.65
2023-05-13T09:37:53.124Z,79.37
2023-05-13T09:41:57.364Z,79.07
2023-05-13T09:46:03.849Z,78.43
2023-05-13T09:50:20.518Z,78.85
2023-05-13T09:54:23.979Z,79.22
2023-05-13T09:58:29.177Z,79.08
2023-05-13T10:02:41.653Z,79.33
2023-05-13T10:06:48.652Z,79.22
2023-05-13T10:10:56.514Z,78.84
2023-05-13T10:15:02.547Z,78.66
2023-05-13T10:19:11.948Z,78.08
2023-05-13T10:23:16.772Z,77.09
2023-05-13T10:27:22.841Z,77.03
2023-05-13T10:31:27.445Z,76.42
2023-05-13T10:35:38.544Z,76.18
2023-05-13T10:40:06.954Z,75.53
2023-05-13T10:44:10.329Z,75.24
2023-05-13T10:48:18.445Z,75.08
2023-05-13T10:52:44.266Z,74.91
2023-05-13T10:56:58.349Z,75.04
2023-05-13T11:01:30.216Z,75.28
2023-05-13T11:05:33.593Z,74.95
2023-05-13T11:09:39.907Z,74.89
2023-05-13T11:13:46.880Z,74.80
2023-05-13T11:17:58.116Z,74.90
2023-05-13T11:22:10.182Z,74.91
2023-05-13T11:26:17.283Z,74.58
2023-05-13T11:30:26.822Z,74.25
2023-05-13T11:34:30.630Z,73.77
2023-05-13T11:38:34.597Z,74.14
2023-05-13T11:42:40.105Z,73.76
2023-05-13T11:46:56.164Z,73.47
2023-05-13T11:50:59.434Z,73.76
2023-05-13T11:55:02.616Z,73.71
2023-05-13T11:59:15.799Z,73.61
2023-05-13T12:03:20.369Z,73.65
2023-05-13T12:07:25.026Z,73.69
2023-05-13T12:11:28.393Z,73.46
2023-05-13T12:15:31.828Z,73.72
2023-05-13T12:19:37.362Z,73.72
2023-05-13T12:23:41.120Z,74.25
2023-05-13T12:27:44.600Z,73.28
2023-05-13T12:32:06.254Z,72.89
2023-05-13T12:36:23.270Z,72.69
2023-05-13T12:40:27.999Z,72.82
2023-05-13T12:44:33.561Z,72.81
2023-05-13T12:48:38.312Z,73.20
2023-05-13T12:52:42.935Z,72.72
2023-05-13T12:56:46.147Z,73.07
2023-05-13T13:00:49.537Z,73.17
2023-05-13T13:04:52.554Z,72.71
2023-05-13T13:08:57.082Z,72.65
2023-05-13T13:13:00.191Z,72.02
2023-05-13T13:17:03.219Z,72.67
2023-05-13T13:21:07.551Z,72.37
2023-05-13T13:25:12.017Z,72.57
2023-05-13T13:29:15.024Z,72.56
2023-05-13T13:33:18.420Z,72.72
2023-05-13T13:37:21.442Z,72.55
2023-05-13T13:41:26.352Z,72.73
2023-05-13T13:45:29.359Z,72.82
2023-05-13T13:49:32.334Z,72.89
2023-05-13T13:53:35.819Z,73.02
2023-05-13T13:57:40.243Z,72.56
2023-05-13T14:01:44.912Z,72.17
2023-05-13T14:05:48.096Z,71.81
2023-05-13T14:09:52.542Z,71.64
2023-05-13T14:13:56.901Z,71.37
2023-05-13T14:17:59.945Z,71.00
2023-05-13T14:22:02.967Z,71.43
2023-05-13T14:26:07.401Z,71.94
2023-05-13T14:30:12.310Z,71.89
2023-05-13T14:34:16.545Z,71.88
2023-05-13T14:42:36.128Z,71.79
2023-05-13T14:46:41.679Z,71.64
2023-05-13T14:50:45.578Z,71.26
2023-05-13T14:54:48.867Z,71.54
2023-05-13T14:58:52.761Z,70.99
2023-05-13T15:02:57.657Z,71.05
2023-05-13T15:07:03.801Z,71.21
2023-05-13T15:11:07.341Z,71.09
2023-05-13T15:15:11.961Z,70.53
2023-05-13T15:19:16.396Z,71.09
2023-05-13T15:23:19.383Z,71.15
2023-05-13T15:27:22.405Z,71.04
2023-05-13T15:31:25.535Z,70.90
2023-05-13T15:35:30.029Z,70.68
2023-05-13T15:39:33.116Z,70.91
2023-05-13T15:43:36.172Z,70.92
2023-05-13T15:47:39.371Z,71.07
2023-05-13T15:51:43.894Z,70.88
2023-05-13T15:55:47.695Z,71.09
2023-05-13T15:59:50.842Z,71.23
2023-05-13T16:03:54.049Z,70.83
2023-05-13T16:07:58.724Z,70.87
2023-05-13T16:12:01.837Z,71.26
2023-05-13T16:16:05.175Z,71.37
2023-05-13T16:20:11.532Z,71.55
2023-05-13T16:24:16.246Z,71.62
2023-05-13T16:28:19.363Z,71.27
2023-05-13T16:32:22.579Z,71.36
2023-05-13T16:36:26.925Z,71.40
2023-05-13T16:40:31.352Z,71.57
2023-05-13T16:44:34.390Z,71.20
2023-05-13T16:48:37.449Z,71.57
2023-05-13T16:52:40.538Z,71.70
2023-05-13T16:56:46.863Z,71.79
2023-05-13T17:00:49.982Z,71.90
2023-05-13T17:04:53.221Z,72.06
2023-05-13T17:08:56.320Z,72.30
2023-05-13T17:13:01.095Z,72.15
2023-05-13T17:17:04.242Z,72.14
2023-05-13T17:21:07.433Z,72.31
2023-05-13T17:25:11.302Z,72.32
2023-05-13T17:29:16.318Z,72.54
2023-05-13T17:33:19.329Z,72.40
2023-05-13T17:37:22.340Z,72.64
2023-05-13T17:41:25.516Z,72.72
2023-05-13T17:45:30.327Z,72.84
2023-05-13T17:49:33.327Z,73.19
2023-05-13T17:53:36.380Z,73.27
2023-05-13T17:57:39.426Z,73.66
2023-05-13T18:01:43.854Z,73.55
2023-05-13T18:05:47.038Z,73.58
2023-05-13T18:09:50.196Z,73.67
2023-05-13T18:13:54.480Z,74.34
2023-05-13T18:17:58.955Z,74.32
2023-05-13T18:22:01.991Z,74.62
2023-05-13T18:26:05.301Z,74.58
2023-05-13T18:30:09.314Z,74.77
2023-05-13T18:34:13.736Z,75.25
2023-05-13T18:38:16.753Z,75.27
2023-05-13T18:42:19.872Z,75.38
2023-05-13T18:46:23.042Z,75.69
2023-05-13T18:50:27.567Z,75.36
2023-05-13T18:54:31.226Z,75.39
2023-05-13T18:58:34.229Z,75.78
2023-05-13T19:02:37.382Z,75.98
2023-05-13T19:06:42.265Z,75.86
2023-05-13T19:10:45.270Z,76.13
2023-05-13T19:14:48.488Z,76.34
2023-05-13T19:18:51.749Z,76.38
2023-05-13T19:22:56.297Z,76.47
2023-05-13T19:26:59.496Z,76.71
2023-05-13T19:31:04.266Z,76.76
2023-05-13T19:35:08.417Z,76.82
2023-05-13T19:39:12.852Z,77.00
2023-05-13T19:43:16.004Z,77.09
2023-05-13T19:47:19.097Z,76.93
2023-05-13T19:51:22.118Z,77.14
2023-05-13T19:55:26.808Z,77.42
2023-05-13T19:59:29.915Z,77.40
2023-05-13T20:03:33.136Z,77.45
2023-05-13T20:07:36.485Z,77.56
2023-05-13T20:11:41.011Z,77.62
2023-05-13T20:15:44.280Z,77.69
2023-05-13T20:19:48.381Z,77.70
2023-05-13T20:23:51.437Z,77.75
2023-05-13T20:27:55.809Z,77.84
2023-05-13T20:31:58.814Z,78.00
2023-05-13T20:36:01.962Z,77.73
2023-05-13T20:40:05.579Z,77.83
2023-05-13T20:44:10.499Z,77.96
2023-05-13T20:48:13.840Z,78.03
2023-05-13T20:52:18.564Z,77.89
2023-05-13T20:56:22.786Z,77.96
2023-05-13T21:00:27.177Z,77.97
2023-05-13T21:04:34.306Z,78.02
2023-05-13T21:08:40.113Z,77.74
2023-05-13T21:12:47.805Z,77.90
2023-05-13T21:16:52.861Z,77.95
2023-05-13T21:20:55.946Z,78.18
2023-05-13T21:24:58.990Z,78.26
2023-05-13T21:29:01.994Z,78.46
2023-05-13T21:33:06.415Z,78.10
2023-05-13T21:37:09.551Z,78.37
2023-05-13T21:41:12.524Z,78.30
2023-05-13T21:45:16.110Z,78.52
2023-05-13T21:49:20.554Z,78.59
2023-05-13T21:53:23.590Z,78.46
2023-05-13T21:57:27.061Z,78.18
2023-05-13T22:01:30.113Z,78.01
2023-05-13T22:05:34.501Z,78.53
2023-05-13T22:09:37.490Z,78.16
2023-05-13T22:13:40.643Z,78.18
2023-05-13T22:17:43.958Z,78.25
2023-05-13T22:21:48.338Z,78.51
2023-05-13T22:25:51.325Z,78.59
2023-05-13T22:29:54.311Z,78.59
2023-05-13T22:33:57.293Z,78.81
2023-05-13T22:38:01.715Z,78.67
2023-05-13T22:42:04.775Z,78.40
2023-05-13T22:46:07.812Z,78.40
2023-05-13T22:50:12.344Z,78.51
2023-05-13T22:54:16.766Z,78.32
2023-05-13T22:58:20.048Z,78.60
2023-05-13T23:02:23.703Z,78.55
2023-05-13T23:06:27.098Z,78.39
2023-05-13T23:10:33.049Z,78.28
2023-05-13T23:14:36.057Z,78.36
2023-05-13T23:18:39.279Z,78.17
2023-05-13T23:22:42.294Z,77.77
2023-05-13T23:26:47.465Z,77.87
2023-05-13T23:30:53.921Z,77.95
2023-05-13T23:34:56.940Z,77.99
2023-05-13T23:38:59.991Z,78.18
2023-05-13T23:43:05.575Z,78.20
2023-05-13T23:47:08.629Z,78.34
2023-05-13T23:51:11.714Z,78.46
2023-05-13T23:55:15.334Z,78.68
2023-05-13T23:59:19.745Z,78.54
